Airfield :







YOU CAN JOIN US ON...

 
LOGIN :

Register | Disclaimer

   EN    FR    IT 

 









Legend :    VFR   Marginal VFR   IFR   Intensive IFR   Very Intensive IFR
Visi :
Ceiling :
>= 8 km
>= 3000ft
5 to 8 km
1000 to 3000 ft
1500m to 5 km
500 to 1000 ft
800 to 1500m
200 to 500 ft
< 800m
< 200 ft
Symbols :   Thunderstorms  Fog  Heavy snow  Heavy precipitations  Wind > 20 kt







- Airport Elevation : 141 ft
- IATA code : YQI


CYQI - Yarmouth

CURRENT METAR :
  • 191400Z 26007KT 15SM FEW110 SCT250 19/16 A2987 RMK AC1CI3 SLP118 DENSITY ALT 700FT

EXPIRED METARs :
  • 191300Z 17005KT 140V220 15SM SCT100 BKN250 20/17 A2988 RMK AC3CI4 SLP120 DENSITY ALT 800FT
  • 191200Z VRB02KT 15SM FEW180 SCT220 BKN250 18/15 A2990 RMK AC1CC2CI4 SLP125 DENSITY ALT 600FT
  • 191100Z 06003KT 10SM BKN250 15/14 A2989 RMK CI7 SLP122 DENSITY ALT 200FT

TAF TAF CYQI
Valid from the 19 at 12:00 until the 20 at 00:00 UTC


191138Z 1912/1924 VRB03KT P6SM SCT240
BECMG 1913/1915 19010KT
FM192100 23010KT P6SM SCT004
PROB30 1921/1924 1/2SM FG VV002 RMK NXT FCST BY 191800Z
CZQM FIR / North America



MET'MAP, your aeronautical weather chart ! - Copyright ORBIFLY December 2007 - Disclaimer

ORBIFLY MET'MAP TEAM :

Programming & Development : Alexandra Zaïnal
Concept & Development : Baudouin d'Aumeries
Co-Development & Prog : Marc-Olivier Méhu
Technical & hardware support : Manuel Goepfert

Contact : metmap@orbifly.com




SOURCES & CREDITS :

   NOAA